This is the latest recevied weather packets stored in our database for station/object 9M2GDD-1. If no packets are shown the sender has not sent any weather packets the latest 10 day(s).
| Time | Temp. | Humidity | Pressure | Rain* | Wind** | Luminosity | Snow |
|---|---|---|---|---|---|---|---|
| 1787451802 | 31.11° C | 62% | 1016.1 hPa | - | - | - | - |
| 1787450902 | 31.11° C | 61% | 1016.1 hPa | - | - | - | - |
| 1787450002 | 30.56° C | 63% | 1016.1 hPa | - | - | - | - |
| 1787449102 | 30° C | 65% | 1016.1 hPa | - | - | - | - |
| 1787448202 | 29.44° C | 65% | 1016 hPa | - | - | - | - |
| 1787447302 | 29.44° C | 65% | 1015.7 hPa | - | - | - | - |
| 1787446402 | 28.89° C | 66% | 1015.8 hPa | - | - | - | - |
| 1787445502 | 28.33° C | 68% | 1015.6 hPa | - | - | - | - |
| 1787444601 | 27.78° C | 71% | 1015.3 hPa | - | - | - | - |
| 1787443701 | 27.22° C | 71% | 1015 hPa | - | - | - | - |
| 1787442801 | 27.22° C | 71% | 1014.8 hPa | - | - | - | - |
| 1787441901 | 27.22° C | 72% | 1014.6 hPa | - | - | - | - |
| 1787441001 | 27.22° C | 71% | 1014.6 hPa | - | - | - | - |
| 1787440101 | 27.22° C | 71% | 1014.5 hPa | - | - | - | - |
| 1787439201 | 27.22° C | 71% | 1014.2 hPa | - | - | - | - |
| 1787438301 | 27.78° C | 70% | 1014.1 hPa | - | - | - | - |
| 1787437401 | 27.78° C | 70% | 1014.1 hPa | - | - | - | - |
| 1787436501 | 27.78° C | 70% | 1013.8 hPa | - | - | - | - |
| 1787435601 | 27.78° C | 68% | 1013.8 hPa | - | - | - | - |
| 1787434700 | 27.78° C | 69% | 1013.5 hPa | - | - | - | - |
| 1787433800 | 27.78° C | 69% | 1013.2 hPa | - | - | - | - |
| 1787432900 | 28.33° C | 69% | 1013 hPa | - | - | - | - |
| 1787432000 | 27.78° C | 69% | 1013 hPa | - | - | - | - |
| 1787431100 | 28.33° C | 69% | 1013 hPa | - | - | - | - |
| 1787430200 | 28.33° C | 69% | 1012.8 hPa | - | - | - | - |
* Rain since midnight (hover to see other rain measurements)
** Current wind speed in m/s (hover to see current wind gust speed)